createdAt,value
2022-11-24T00:00:03.919Z,7.29
2022-11-24T00:01:03.890Z,7.24
2022-11-24T00:02:04.008Z,7.33
2022-11-24T00:03:03.909Z,7.30
2022-11-24T00:04:03.759Z,7.26
2022-11-24T00:05:03.715Z,7.36
2022-11-24T00:06:03.682Z,7.36
2022-11-24T00:07:03.622Z,7.26
2022-11-24T00:08:03.572Z,7.34
2022-11-24T00:09:03.549Z,7.26
2022-11-24T00:10:03.487Z,7.21
2022-11-24T00:11:03.441Z,7.24
2022-11-24T00:12:03.398Z,7.26
2022-11-24T00:13:03.359Z,7.24
2022-11-24T00:14:03.325Z,7.26
2022-11-24T00:15:03.276Z,7.24
2022-11-24T00:16:03.237Z,7.23
2022-11-24T00:17:03.388Z,7.15
2022-11-24T00:18:03.142Z,7.26
2022-11-24T00:19:03.100Z,7.18
2022-11-24T00:20:03.078Z,7.12
2022-11-24T00:21:03.014Z,7.24
2022-11-24T00:22:02.982Z,7.23
2022-11-24T00:23:02.929Z,7.21
2022-11-24T00:24:02.898Z,7.21
2022-11-24T00:25:02.846Z,7.14
2022-11-24T00:26:02.796Z,7.04
2022-11-24T00:27:02.761Z,7.19
2022-11-24T00:28:02.733Z,7.19
2022-11-24T00:29:02.673Z,7.23
2022-11-24T00:30:02.629Z,7.27
2022-11-24T00:31:02.661Z,7.15
2022-11-24T00:32:02.540Z,7.23
2022-11-24T00:33:02.500Z,7.23
2022-11-24T00:34:02.459Z,7.24
2022-11-24T00:35:02.409Z,7.14
2022-11-24T00:36:02.365Z,7.15
2022-11-24T00:37:02.326Z,7.21
2022-11-24T00:38:02.290Z,7.01
2022-11-24T00:39:02.235Z,7.18
2022-11-24T00:40:02.207Z,7.07
2022-11-24T00:41:02.151Z,7.14
2022-11-24T00:42:02.116Z,7.18
2022-11-24T00:43:02.064Z,7.21
2022-11-24T00:44:02.051Z,7.15
2022-11-24T00:45:12.944Z,7.32
2022-11-24T00:46:02.050Z,7.18
2022-11-24T00:47:02.042Z,7.12
2022-11-24T00:48:01.864Z,7.23
2022-11-24T00:49:01.811Z,7.11
2022-11-24T00:50:01.788Z,7.16
2022-11-24T00:51:01.722Z,7.32
2022-11-24T00:52:01.675Z,7.23
2022-11-24T00:53:01.635Z,7.23
2022-11-24T00:54:01.591Z,7.26
2022-11-24T00:55:01.543Z,7.15
2022-11-24T00:56:01.519Z,7.32
2022-11-24T00:57:01.460Z,7.19
2022-11-24T00:58:01.423Z,7.32
2022-11-24T00:59:01.375Z,7.24
2022-11-24T01:00:01.329Z,7.32
2022-11-24T01:01:01.322Z,7.27
2022-11-24T01:02:01.318Z,7.34
2022-11-24T01:03:01.287Z,7.30
2022-11-24T01:04:01.152Z,7.27
2022-11-24T01:05:01.116Z,7.26
2022-11-24T01:06:01.075Z,7.32
2022-11-24T01:07:01.033Z,7.30
2022-11-24T01:08:00.998Z,7.21
2022-11-24T01:09:00.950Z,7.34
2022-11-24T01:10:00.905Z,7.19
2022-11-24T01:11:00.857Z,7.27
2022-11-24T01:12:00.812Z,7.23
2022-11-24T01:13:00.780Z,7.21
2022-11-24T01:21:28.908Z,7.26
2022-11-24T01:22:28.851Z,7.37
2022-11-24T01:26:22.049Z,7.47
2022-11-24T01:27:21.980Z,7.32
2022-11-24T01:28:21.936Z,7.45
2022-11-24T01:35:09.317Z,7.57
2022-11-24T01:38:16.705Z,7.71
2022-11-24T01:39:16.645Z,7.77
2022-11-24T01:40:16.599Z,7.76
2022-11-24T01:43:49.782Z,7.82
2022-11-24T01:44:49.731Z,7.88
2022-11-24T01:45:49.728Z,7.86
2022-11-24T01:46:49.636Z,7.86
2022-11-24T01:47:49.593Z,7.85
2022-11-24T01:48:49.562Z,7.92
2022-11-24T01:53:32.033Z,7.89
2022-11-24T01:58:41.616Z,8.12
2022-11-24T01:59:41.562Z,7.95
2022-11-24T02:02:50.336Z,8.00
2022-11-24T02:03:50.192Z,8.03
2022-11-24T02:06:41.526Z,8.00
2022-11-24T02:07:41.567Z,7.94
2022-11-24T02:08:41.446Z,8.03
2022-11-24T02:13:27.754Z,8.00
2022-11-24T02:14:35.901Z,7.99
2022-11-24T02:15:27.658Z,8.04
2022-11-24T02:16:27.626Z,7.96
2022-11-24T02:17:27.573Z,7.99
2022-11-24T02:18:27.527Z,8.03
2022-11-24T02:19:27.512Z,8.07
2022-11-24T02:20:27.441Z,7.99
2022-11-24T02:21:27.397Z,8.07
2022-11-24T02:22:27.360Z,8.07
2022-11-24T02:23:27.312Z,8.04
2022-11-24T02:26:28.282Z,8.00
2022-11-24T02:27:28.225Z,8.00
2022-11-24T02:28:28.184Z,8.09
2022-11-24T02:29:28.141Z,7.91
2022-11-24T02:30:28.107Z,8.03
2022-11-24T02:31:28.156Z,8.06
2022-11-24T02:32:28.026Z,8.10
2022-11-24T02:33:27.966Z,8.03
2022-11-24T02:34:27.943Z,7.99
2022-11-24T02:35:27.880Z,8.04
2022-11-24T02:36:27.838Z,8.04
2022-11-24T02:37:27.808Z,8.18
2022-11-24T02:38:27.755Z,8.20
2022-11-24T02:39:27.707Z,8.14
2022-11-24T02:40:27.665Z,8.20
2022-11-24T02:41:27.623Z,8.09
2022-11-24T02:42:27.582Z,8.12
2022-11-24T02:43:27.551Z,8.17
2022-11-24T02:44:27.523Z,8.12
2022-11-24T02:45:27.454Z,8.25
2022-11-24T02:46:27.451Z,8.14
2022-11-24T02:47:27.369Z,8.24
2022-11-24T02:48:27.324Z,8.17
2022-11-24T02:49:27.294Z,8.14
2022-11-24T02:50:27.239Z,8.27
2022-11-24T02:51:27.197Z,8.32
2022-11-24T02:52:27.155Z,8.25
2022-11-24T02:53:27.115Z,8.37
2022-11-24T02:54:27.068Z,8.29
2022-11-24T02:55:27.034Z,8.29
2022-11-24T02:56:26.994Z,8.37
2022-11-24T02:57:26.941Z,8.37
2022-11-24T02:58:26.909Z,8.36
2022-11-24T02:59:26.853Z,8.32
2022-11-24T03:00:26.813Z,8.37
2022-11-24T03:01:26.892Z,8.43
2022-11-24T03:02:26.746Z,8.47
2022-11-24T03:03:26.684Z,8.36
2022-11-24T03:04:26.642Z,8.46
2022-11-24T03:05:26.612Z,8.42
2022-11-24T03:06:26.559Z,8.45
2022-11-24T03:07:26.595Z,8.58
2022-11-24T03:08:26.488Z,8.50
2022-11-24T03:09:26.431Z,8.46
2022-11-24T03:10:26.388Z,8.39
2022-11-24T03:11:26.356Z,8.46
2022-11-24T03:12:26.302Z,8.46
2022-11-24T03:13:26.265Z,8.37
2022-11-24T03:14:26.232Z,8.52
2022-11-24T03:15:26.176Z,8.45
2022-11-24T03:16:26.187Z,8.54
2022-11-24T03:17:26.090Z,8.55
2022-11-24T03:18:26.046Z,8.47
2022-11-24T03:19:26.006Z,8.49
2022-11-24T03:20:25.972Z,8.49
2022-11-24T03:21:25.920Z,8.43
2022-11-24T03:22:25.878Z,8.40
2022-11-24T03:23:25.850Z,8.39
2022-11-24T03:24:25.792Z,8.36
2022-11-24T03:25:25.752Z,8.32
2022-11-24T03:26:25.710Z,8.42
2022-11-24T03:27:25.668Z,8.34
2022-11-24T03:28:25.622Z,8.34
2022-11-24T03:29:25.596Z,8.36
2022-11-24T03:30:25.541Z,8.36
2022-11-24T03:31:25.531Z,8.36
2022-11-24T03:32:25.452Z,8.43
2022-11-24T03:33:25.414Z,8.34
2022-11-24T03:34:25.366Z,8.45
2022-11-24T03:35:25.365Z,8.40
2022-11-24T03:36:25.281Z,8.45
2022-11-24T03:37:25.240Z,8.52
2022-11-24T03:38:25.199Z,8.60
2022-11-24T03:39:25.158Z,8.50
2022-11-24T03:40:25.115Z,8.39
2022-11-24T03:41:25.096Z,8.43
2022-11-24T03:42:25.025Z,8.46
2022-11-24T03:43:24.983Z,8.42
2022-11-24T03:44:24.942Z,8.40
2022-11-24T03:46:24.942Z,8.46
2022-11-24T03:47:24.825Z,8.42
2022-11-24T03:48:24.772Z,8.47
2022-11-24T03:49:24.729Z,8.50
2022-11-24T03:50:24.689Z,8.49
2022-11-24T03:51:24.645Z,8.43
2022-11-24T03:52:24.615Z,8.45
2022-11-24T03:53:24.557Z,8.58
2022-11-24T03:54:24.514Z,8.52
2022-11-24T03:55:24.474Z,8.55
2022-11-24T03:56:24.431Z,8.49
2022-11-24T03:57:24.385Z,8.46
2022-11-24T03:58:24.360Z,8.55
2022-11-24T03:59:24.307Z,8.55
2022-11-24T04:00:24.262Z,8.55
2022-11-24T04:01:24.286Z,8.55
2022-11-24T04:02:24.201Z,8.57
2022-11-24T04:03:24.133Z,8.61
2022-11-24T04:04:24.103Z,8.64
2022-11-24T04:05:24.048Z,8.57
2022-11-24T04:06:24.020Z,8.45
2022-11-24T04:07:24.010Z,8.55
2022-11-24T04:08:23.928Z,8.46
2022-11-24T04:09:23.878Z,8.57
2022-11-24T04:10:23.832Z,8.57
2022-11-24T04:11:23.793Z,8.58
2022-11-24T04:12:23.767Z,8.58
2022-11-24T04:13:23.718Z,8.63
2022-11-24T04:14:23.666Z,8.60
2022-11-24T04:15:23.623Z,8.61
2022-11-24T04:16:23.637Z,8.57
2022-11-24T04:17:23.538Z,8.57
2022-11-24T04:18:23.514Z,8.65
2022-11-24T04:19:23.453Z,8.52
2022-11-24T04:20:23.413Z,8.54
2022-11-24T04:21:23.369Z,8.58
2022-11-24T04:22:23.326Z,8.54
2022-11-24T04:23:23.299Z,8.57
2022-11-24T04:24:23.241Z,8.52
2022-11-24T04:25:23.208Z,8.60
2022-11-24T04:26:23.161Z,8.54
2022-11-24T04:27:23.115Z,8.55
2022-11-24T04:28:23.071Z,8.50
2022-11-24T04:29:23.045Z,8.54
2022-11-24T04:30:22.988Z,8.55
2022-11-24T04:31:23.000Z,8.57
2022-11-24T04:32:22.904Z,8.46
2022-11-24T04:33:22.865Z,8.45
2022-11-24T04:34:22.820Z,8.39
2022-11-24T04:35:22.785Z,8.40
2022-11-24T04:36:22.733Z,8.52
2022-11-24T04:37:22.695Z,8.49
2022-11-24T04:39:23.158Z,8.55
2022-11-24T04:39:26.432Z,8.49
2022-11-24T04:40:22.562Z,8.47
2022-11-24T04:41:22.533Z,8.54
2022-11-24T04:42:22.487Z,8.54
2022-11-24T04:43:22.437Z,8.60
2022-11-24T04:44:22.396Z,8.50
2022-11-24T04:45:22.356Z,8.57
2022-11-24T04:46:22.317Z,8.54
2022-11-24T04:47:22.265Z,8.55
2022-11-24T04:48:22.236Z,8.52
2022-11-24T04:49:22.184Z,8.47
2022-11-24T04:50:22.139Z,8.52
2022-11-24T04:51:22.096Z,8.52
2022-11-24T04:52:22.052Z,8.50
2022-11-24T04:53:22.012Z,8.46
2022-11-24T04:54:21.980Z,8.50
2022-11-24T04:55:21.927Z,8.52
2022-11-24T04:56:21.883Z,8.50
2022-11-24T04:57:21.843Z,8.50
2022-11-24T04:58:21.803Z,8.46
2022-11-24T04:59:21.768Z,8.57
2022-11-24T05:00:21.719Z,8.58
2022-11-24T05:01:21.737Z,8.64
2022-11-24T05:02:21.629Z,8.47
2022-11-24T05:03:21.587Z,8.58
2022-11-24T05:04:21.667Z,8.63
2022-11-24T05:05:21.512Z,8.63
2022-11-24T05:06:21.462Z,8.58
2022-11-24T05:07:21.487Z,8.71
2022-11-24T05:08:21.375Z,8.64
2022-11-24T05:09:21.339Z,8.71
2022-11-24T05:10:21.291Z,8.78
2022-11-24T05:11:21.256Z,8.78
2022-11-24T05:12:21.205Z,8.75
2022-11-24T05:13:21.177Z,8.82
2022-11-24T05:14:21.121Z,8.65
2022-11-24T05:15:21.081Z,8.78
2022-11-24T05:16:21.054Z,8.70
2022-11-24T05:17:20.995Z,8.76
2022-11-24T05:18:20.952Z,8.68
2022-11-24T05:19:20.921Z,8.68
2022-11-24T05:20:20.870Z,8.79
2022-11-24T05:21:20.835Z,8.73
2022-11-24T05:22:20.781Z,8.73
2022-11-24T05:23:20.755Z,8.75
2022-11-24T05:24:20.711Z,8.80
2022-11-24T05:25:20.659Z,8.85
2022-11-24T05:26:20.614Z,8.78
2022-11-24T05:27:20.574Z,8.83
2022-11-24T05:28:20.528Z,8.71
2022-11-24T05:29:20.488Z,8.76
2022-11-24T05:30:20.486Z,8.71
2022-11-24T05:31:20.488Z,8.78
2022-11-24T05:32:20.359Z,8.73
2022-11-24T05:33:20.319Z,8.89
2022-11-24T05:34:20.274Z,8.78
2022-11-24T05:35:20.235Z,8.80
2022-11-24T05:36:20.199Z,8.79
2022-11-24T05:37:20.153Z,8.80
2022-11-24T05:38:20.107Z,8.80
2022-11-24T05:39:20.067Z,8.76
2022-11-24T05:40:20.019Z,8.71
2022-11-24T05:41:19.982Z,8.79
2022-11-24T05:42:19.946Z,8.71
2022-11-24T05:43:19.900Z,8.71
2022-11-24T05:44:19.851Z,8.79
2022-11-24T05:45:19.818Z,8.75
2022-11-24T05:46:19.800Z,8.73
2022-11-24T05:47:19.730Z,8.86
2022-11-24T05:48:19.693Z,8.80
2022-11-24T05:49:19.653Z,8.73
2022-11-24T05:50:19.595Z,8.67
2022-11-24T05:51:19.588Z,8.68
2022-11-24T05:52:19.512Z,8.76
2022-11-24T05:53:19.473Z,8.67
2022-11-24T05:54:19.476Z,8.65
2022-11-24T05:55:19.480Z,8.63
2022-11-24T05:56:19.345Z,8.68
2022-11-24T05:57:19.305Z,8.54
2022-11-24T05:58:19.260Z,8.54
2022-11-24T05:59:19.231Z,8.58
2022-11-24T06:00:19.174Z,8.52
2022-11-24T06:01:19.143Z,8.60
2022-11-24T06:02:19.293Z,8.63
2022-11-24T06:03:19.072Z,8.63
2022-11-24T06:04:19.005Z,8.60
2022-11-24T06:05:18.966Z,8.68
2022-11-24T06:06:18.918Z,8.78
2022-11-24T06:07:18.910Z,8.75
2022-11-24T06:08:18.833Z,8.78
2022-11-24T06:09:18.793Z,8.76
2022-11-24T06:10:18.749Z,8.73
2022-11-24T06:11:18.720Z,8.73
2022-11-24T06:12:18.666Z,8.75
2022-11-24T06:13:18.727Z,8.80
2022-11-24T06:14:18.588Z,8.83
2022-11-24T06:15:18.547Z,8.80
2022-11-24T06:16:18.549Z,8.82
2022-11-24T06:17:18.459Z,8.98
2022-11-24T06:18:18.414Z,8.88
2022-11-24T06:19:18.383Z,8.93
2022-11-24T06:20:18.325Z,8.93
2022-11-24T06:21:18.289Z,8.93
2022-11-24T06:22:18.241Z,9.04
2022-11-24T06:23:18.202Z,9.08
2022-11-24T06:24:18.156Z,9.15
2022-11-24T06:25:18.131Z,9.17
2022-11-24T06:26:18.073Z,9.23
2022-11-24T06:27:18.034Z,9.22
2022-11-24T06:28:17.990Z,9.37
2022-11-24T06:29:17.947Z,9.30
2022-11-24T06:30:17.901Z,9.42
2022-11-24T06:31:17.964Z,9.42
2022-11-24T06:32:17.825Z,9.37
2022-11-24T06:33:17.783Z,9.45
2022-11-24T06:34:17.743Z,9.31
2022-11-24T06:35:17.704Z,9.41
2022-11-24T06:36:17.649Z,9.34
2022-11-24T06:37:17.633Z,9.40
2022-11-24T06:38:21.456Z,9.40
2022-11-24T06:39:17.527Z,9.30
2022-11-24T06:40:17.483Z,9.34
2022-11-24T06:41:17.439Z,9.31
2022-11-24T06:42:17.411Z,9.31
2022-11-24T06:43:17.357Z,9.27
2022-11-24T06:44:17.312Z,9.31
2022-11-24T06:45:17.280Z,9.22
2022-11-24T06:46:17.261Z,9.23
2022-11-24T06:47:17.192Z,9.23
2022-11-24T06:48:17.153Z,9.24
2022-11-24T06:49:17.104Z,9.26
2022-11-24T06:50:17.062Z,9.23
2022-11-24T06:51:17.022Z,9.26
2022-11-24T06:52:16.978Z,9.20
2022-11-24T06:53:16.941Z,9.16
2022-11-24T06:54:16.899Z,9.22
2022-11-24T06:55:16.850Z,9.22
2022-11-24T06:56:17.086Z,9.32
2022-11-24T06:57:16.767Z,9.26
2022-11-24T06:58:16.725Z,9.30
2022-11-24T06:59:16.683Z,9.23
2022-11-24T07:00:16.651Z,9.24
2022-11-24T07:01:16.707Z,9.17
2022-11-24T07:02:16.560Z,9.24
2022-11-24T07:03:16.558Z,9.22
2022-11-24T07:04:16.470Z,9.10
2022-11-24T07:05:16.439Z,9.13
2022-11-24T07:06:16.389Z,9.06
2022-11-24T07:07:16.400Z,9.03
2022-11-24T07:08:17.948Z,8.97
2022-11-24T07:09:16.256Z,9.00
2022-11-24T07:10:16.219Z,8.94
2022-11-24T07:11:16.183Z,8.98
2022-11-24T07:12:16.132Z,8.94
2022-11-24T07:13:16.087Z,8.93
2022-11-24T07:14:16.048Z,8.88
2022-11-24T07:15:16.046Z,8.89
2022-11-24T07:16:16.010Z,8.80
2022-11-24T07:17:15.931Z,8.88
2022-11-24T07:18:15.883Z,8.94
2022-11-24T07:19:20.167Z,8.94
2022-11-24T07:20:15.795Z,9.01
2022-11-24T07:21:15.750Z,8.97
2022-11-24T07:22:15.725Z,9.03
2022-11-24T07:23:15.664Z,8.96
2022-11-24T07:24:15.624Z,9.00
2022-11-24T07:25:15.581Z,9.08
2022-11-24T07:26:15.540Z,9.01
2022-11-24T07:27:15.496Z,9.06
2022-11-24T07:28:15.485Z,9.06
2022-11-24T07:29:15.410Z,9.06
2022-11-24T07:30:15.369Z,9.06
2022-11-24T07:31:15.399Z,9.15
2022-11-24T07:32:15.333Z,9.06
2022-11-24T07:33:15.245Z,9.06
2022-11-24T07:34:15.240Z,9.06
2022-11-24T07:35:15.158Z,9.08
2022-11-24T07:36:15.118Z,9.10
2022-11-24T07:37:15.088Z,9.12
2022-11-24T07:38:15.033Z,9.10
2022-11-24T07:39:14.987Z,9.17
2022-11-24T07:40:14.950Z,9.20
2022-11-24T07:41:14.907Z,9.13
2022-11-24T07:42:14.867Z,9.20
2022-11-24T07:43:19.999Z,9.22
2022-11-24T07:44:14.779Z,9.19
2022-11-24T07:45:14.736Z,9.23
2022-11-24T07:46:14.793Z,9.19
2022-11-24T07:47:14.652Z,9.19
2022-11-24T07:48:14.615Z,9.19
2022-11-24T07:49:14.577Z,9.20
2022-11-24T07:50:14.527Z,9.22
2022-11-24T07:51:14.487Z,9.20
2022-11-24T07:52:14.447Z,9.17
2022-11-24T07:53:14.400Z,9.23
2022-11-24T07:54:14.370Z,9.19
2022-11-24T07:55:14.327Z,9.12
2022-11-24T07:56:14.275Z,9.22
2022-11-24T07:57:14.233Z,9.15
2022-11-24T07:58:14.190Z,9.08
2022-11-24T07:59:14.145Z,9.22
2022-11-24T08:00:14.125Z,9.23
2022-11-24T08:01:14.241Z,9.17
2022-11-24T08:02:14.023Z,9.23
2022-11-24T08:03:14.017Z,9.08
2022-11-24T08:04:14.011Z,9.30
2022-11-24T08:05:13.892Z,9.22
2022-11-24T08:06:38.123Z,9.22
2022-11-24T08:07:13.878Z,9.17
2022-11-24T08:08:13.776Z,9.26
2022-11-24T08:09:13.741Z,9.30
2022-11-24T08:10:13.687Z,9.19
2022-11-24T08:11:13.655Z,9.32
2022-11-24T08:12:13.605Z,9.22
2022-11-24T08:13:13.557Z,9.27
2022-11-24T08:14:13.522Z,9.31
2022-11-24T08:15:13.481Z,9.30
2022-11-24T08:16:13.566Z,9.45
2022-11-24T08:17:13.440Z,9.40
2022-11-24T08:18:13.357Z,9.40
2022-11-24T08:19:13.305Z,9.44
2022-11-24T08:20:13.267Z,9.42
2022-11-24T08:21:13.221Z,9.49
2022-11-24T08:22:13.196Z,9.48
2022-11-24T08:23:13.143Z,9.41
2022-11-24T08:24:13.117Z,9.44
2022-11-24T08:25:13.062Z,9.49
2022-11-24T08:26:13.018Z,9.48
2022-11-24T08:27:13.035Z,9.49
2022-11-24T08:28:12.940Z,9.50
2022-11-24T08:29:12.894Z,9.55
2022-11-24T08:30:12.851Z,9.58
2022-11-24T08:31:12.807Z,9.50
2022-11-24T08:32:17.406Z,9.63
2022-11-24T08:33:12.729Z,9.48
2022-11-24T08:34:12.695Z,9.52
2022-11-24T08:35:14.338Z,9.59
2022-11-24T08:36:12.601Z,9.65
2022-11-24T08:37:12.554Z,9.55
2022-11-24T08:38:12.518Z,9.58
2022-11-24T08:39:12.481Z,9.59
2022-11-24T08:40:12.433Z,9.68
2022-11-24T08:41:12.407Z,9.62
2022-11-24T08:42:12.347Z,9.70
2022-11-24T08:43:12.306Z,9.68
2022-11-24T08:44:12.286Z,9.68
2022-11-24T08:45:20.389Z,9.68
2022-11-24T08:46:12.256Z,9.67
2022-11-24T08:47:12.139Z,9.71
2022-11-24T08:48:12.104Z,9.74
2022-11-24T08:49:12.055Z,9.85
2022-11-24T08:50:12.034Z,9.74
2022-11-24T08:51:11.984Z,9.74
2022-11-24T08:52:11.937Z,9.89
2022-11-24T08:53:11.897Z,9.88
2022-11-24T08:54:11.847Z,9.81
2022-11-24T08:55:11.806Z,9.93
2022-11-24T08:56:11.784Z,9.89
2022-11-24T08:57:12.602Z,9.85
2022-11-24T08:58:11.684Z,9.89
2022-11-24T08:59:11.678Z,9.80
2022-11-24T09:00:11.609Z,9.75
2022-11-24T09:01:11.600Z,9.81
2022-11-24T09:02:11.545Z,9.85
2022-11-24T09:03:11.478Z,9.80
2022-11-24T09:04:11.473Z,9.92
2022-11-24T09:05:43.340Z,9.95
2022-11-24T09:06:11.359Z,9.95
2022-11-24T09:07:11.361Z,9.91
2022-11-24T09:08:11.287Z,9.91
2022-11-24T09:09:11.228Z,9.86
2022-11-24T09:10:11.186Z,9.86
2022-11-24T09:11:11.152Z,10.11
2022-11-24T09:12:14.369Z,9.99
2022-11-24T09:13:11.060Z,10.02
2022-11-24T09:14:11.058Z,9.95
2022-11-24T09:15:10.979Z,9.99
2022-11-24T09:16:10.937Z,9.92
2022-11-24T09:17:10.950Z,10.04
2022-11-24T09:18:10.855Z,10.13
2022-11-24T09:19:10.814Z,10.06
2022-11-24T09:20:10.795Z,10.22
2022-11-24T09:21:10.730Z,10.14
2022-11-24T09:22:10.693Z,10.25
2022-11-24T09:23:10.648Z,10.20
2022-11-24T09:24:10.607Z,10.38
2022-11-24T09:25:10.594Z,10.29
2022-11-24T09:26:10.541Z,10.51
2022-11-24T09:27:10.485Z,10.39
2022-11-24T09:28:10.465Z,10.49
2022-11-24T09:29:10.402Z,10.38
2022-11-24T09:30:10.362Z,10.42
2022-11-24T09:31:10.458Z,10.42
2022-11-24T09:32:10.296Z,10.42
2022-11-24T09:33:10.257Z,10.39
2022-11-24T09:34:10.224Z,10.32
2022-11-24T09:35:10.154Z,10.20
2022-11-24T09:36:10.118Z,10.28
2022-11-24T09:37:10.082Z,10.22
2022-11-24T09:38:10.049Z,10.34
2022-11-24T09:39:09.992Z,10.38
2022-11-24T09:40:09.956Z,10.38
2022-11-24T09:41:09.907Z,10.34
2022-11-24T09:42:09.868Z,10.36
2022-11-24T09:43:09.822Z,10.43
2022-11-24T09:44:09.808Z,10.49
2022-11-24T09:45:09.739Z,10.42
2022-11-24T09:46:09.796Z,10.58
2022-11-24T09:47:09.672Z,10.62
2022-11-24T09:48:09.621Z,10.51
2022-11-24T09:49:09.577Z,10.70
2022-11-24T09:50:09.555Z,10.58
2022-11-24T09:51:09.518Z,10.68
2022-11-24T09:52:10.023Z,10.68
2022-11-24T09:53:09.417Z,10.80
2022-11-24T09:54:09.383Z,10.73
2022-11-24T09:55:09.342Z,10.63
2022-11-24T09:56:09.309Z,10.75
2022-11-24T09:57:09.264Z,10.76
2022-11-24T09:58:09.220Z,10.83
2022-11-24T09:59:09.169Z,10.70
2022-11-24T10:00:09.129Z,10.76
2022-11-24T10:01:09.121Z,10.76
2022-11-24T10:02:09.071Z,10.87
2022-11-24T10:03:09.009Z,10.86
2022-11-24T10:04:09.004Z,10.93
2022-11-24T10:05:08.964Z,10.99
2022-11-24T10:06:08.888Z,11.06
2022-11-24T10:07:08.889Z,11.41
2022-11-24T10:08:08.807Z,11.93
2022-11-24T10:09:08.765Z,12.22
2022-11-24T10:10:08.741Z,12.41
2022-11-24T10:11:08.682Z,12.74
2022-11-24T10:12:08.646Z,12.67
2022-11-24T10:13:08.601Z,12.58
2022-11-24T10:14:08.566Z,12.58
2022-11-24T10:15:08.533Z,12.59
2022-11-24T10:16:08.522Z,12.61
2022-11-24T10:17:08.450Z,12.63
2022-11-24T10:18:14.891Z,12.94
2022-11-24T10:19:08.369Z,13.09
2022-11-24T10:20:08.345Z,13.09
2022-11-24T10:21:08.329Z,13.25
2022-11-24T10:22:08.267Z,13.24
2022-11-24T10:23:08.210Z,13.06
2022-11-24T10:24:08.193Z,13.09
2022-11-24T10:25:08.135Z,13.43
2022-11-24T10:26:08.113Z,13.90
2022-11-24T10:27:08.077Z,14.21
2022-11-24T10:28:08.051Z,14.56
2022-11-24T10:29:07.982Z,14.59
2022-11-24T10:30:07.957Z,14.83
2022-11-24T10:31:07.947Z,14.26
2022-11-24T10:32:07.899Z,13.99
2022-11-24T10:33:07.893Z,13.73
2022-11-24T10:34:07.813Z,13.47
2022-11-24T10:35:07.756Z,13.61
2022-11-24T10:36:07.723Z,13.84
2022-11-24T10:37:07.697Z,13.91
2022-11-24T10:38:07.663Z,13.98
2022-11-24T10:39:07.607Z,13.93
2022-11-24T10:40:10.864Z,13.41
2022-11-24T10:41:07.536Z,12.99
2022-11-24T10:42:07.514Z,12.99
2022-11-24T10:43:07.461Z,12.84
2022-11-24T10:44:07.429Z,13.09
2022-11-24T10:45:07.385Z,13.35
2022-11-24T10:46:07.426Z,13.50
2022-11-24T10:47:07.317Z,13.39
2022-11-24T10:48:07.296Z,13.16
2022-11-24T10:49:07.237Z,12.95
2022-11-24T10:50:07.214Z,12.69
2022-11-24T10:51:07.169Z,12.66
2022-11-24T10:52:07.144Z,12.63
2022-11-24T10:53:07.125Z,12.95
2022-11-24T10:54:07.051Z,13.35
2022-11-24T10:55:07.015Z,13.10
2022-11-24T10:56:06.981Z,12.91
2022-11-24T10:57:06.945Z,12.81
2022-11-24T10:58:06.905Z,12.96
2022-11-24T10:59:06.876Z,13.03
2022-11-24T11:00:06.831Z,12.91
2022-11-24T11:01:06.822Z,12.69
2022-11-24T11:02:06.882Z,12.51
2022-11-24T11:03:06.748Z,12.56
2022-11-24T11:04:06.679Z,12.48
2022-11-24T11:05:06.655Z,12.48
2022-11-24T11:06:06.605Z,12.58
2022-11-24T11:07:06.683Z,12.48
2022-11-24T11:08:06.551Z,12.31
2022-11-24T11:09:06.483Z,12.43
2022-11-24T11:10:06.457Z,12.55
2022-11-24T11:11:06.415Z,12.44
2022-11-24T11:12:35.832Z,12.51
2022-11-24T11:13:06.334Z,12.41
2022-11-24T11:14:06.288Z,12.44
2022-11-24T11:15:06.247Z,12.29
2022-11-24T11:16:06.279Z,12.34
2022-11-24T11:17:06.176Z,12.40
2022-11-24T11:18:06.131Z,12.73
2022-11-24T11:19:20.307Z,12.69
2022-11-24T11:20:06.400Z,12.66
2022-11-24T11:21:06.027Z,12.52
2022-11-24T11:22:05.993Z,12.52
2022-11-24T11:23:05.941Z,12.73
2022-11-24T11:24:05.902Z,12.91
2022-11-24T11:25:05.872Z,12.76
2022-11-24T11:26:05.837Z,12.73
2022-11-24T11:27:05.783Z,12.66
2022-11-24T11:28:09.812Z,12.88
2022-11-24T11:31:22.537Z,12.95
2022-11-24T11:34:09.562Z,13.59
2022-11-24T11:35:05.481Z,13.47
2022-11-24T11:36:05.434Z,13.17
2022-11-24T11:37:05.397Z,13.29
2022-11-24T11:38:05.378Z,13.06
2022-11-24T11:39:05.316Z,13.06
2022-11-24T11:40:05.281Z,12.88
2022-11-24T11:41:05.260Z,12.91
2022-11-24T11:42:05.207Z,12.87
2022-11-24T11:43:05.174Z,12.99
2022-11-24T11:44:05.145Z,12.96
2022-11-24T11:45:05.086Z,12.92
2022-11-24T11:46:05.183Z,13.04
2022-11-24T11:47:05.060Z,13.07
2022-11-24T11:48:04.985Z,13.14
2022-11-24T11:49:04.946Z,13.10
2022-11-24T11:50:04.906Z,12.88
2022-11-24T11:51:22.793Z,12.85
2022-11-24T11:52:04.815Z,13.09
2022-11-24T11:53:04.779Z,13.35
2022-11-24T11:54:04.885Z,13.27
2022-11-24T11:55:04.704Z,13.07
2022-11-24T11:56:04.686Z,13.16
2022-11-24T11:57:04.627Z,13.31
2022-11-24T11:58:04.695Z,13.31
2022-11-24T11:59:04.551Z,13.36
2022-11-24T12:00:04.508Z,13.43
2022-11-24T12:01:04.477Z,13.39
2022-11-24T12:02:04.441Z,13.24
2022-11-24T12:03:04.437Z,13.16
2022-11-24T12:04:04.459Z,13.24
2022-11-24T12:05:04.320Z,13.19
2022-11-24T12:06:04.279Z,13.06
2022-11-24T12:07:04.241Z,13.24
2022-11-24T12:08:09.599Z,13.12
2022-11-24T12:09:20.005Z,12.98
2022-11-24T12:10:04.124Z,12.94
2022-11-24T12:11:04.087Z,12.96
2022-11-24T12:12:04.048Z,13.01
2022-11-24T12:13:04.014Z,12.96
2022-11-24T12:14:04.000Z,13.06
2022-11-24T12:15:10.259Z,12.88
2022-11-24T12:16:03.951Z,12.85
2022-11-24T12:17:03.859Z,12.81
2022-11-24T12:18:03.829Z,12.74
2022-11-24T12:19:03.780Z,12.67
2022-11-24T12:20:03.741Z,12.56
2022-11-24T12:21:03.703Z,12.44
2022-11-24T12:22:03.664Z,12.51
2022-11-24T12:23:03.632Z,12.58
2022-11-24T12:24:03.607Z,12.43
2022-11-24T12:25:03.600Z,12.34
2022-11-24T12:26:03.508Z,12.44
2022-11-24T12:27:03.548Z,12.48
2022-11-24T12:28:03.438Z,12.52
2022-11-24T12:29:03.411Z,12.56
2022-11-24T12:30:03.368Z,12.43
2022-11-24T12:31:03.370Z,12.49
2022-11-24T12:32:03.277Z,12.56
2022-11-24T12:33:03.236Z,12.66
2022-11-24T12:34:03.197Z,12.69
2022-11-24T12:35:03.167Z,12.66
2022-11-24T12:36:03.115Z,12.51
2022-11-24T12:37:03.082Z,12.52
2022-11-24T12:38:03.036Z,12.43
2022-11-24T12:39:03.004Z,12.46
2022-11-24T12:40:02.976Z,12.31
2022-11-24T12:41:25.499Z,12.49
2022-11-24T12:42:02.887Z,12.48
2022-11-24T12:43:02.843Z,12.46
2022-11-24T12:44:02.799Z,12.51
2022-11-24T12:45:02.777Z,12.43
2022-11-24T12:46:02.806Z,12.48
2022-11-24T12:47:02.788Z,12.49
2022-11-24T12:48:02.645Z,12.56
2022-11-24T12:49:02.605Z,12.54
2022-11-24T12:50:02.566Z,12.58
2022-11-24T12:51:02.538Z,12.69
2022-11-24T12:52:02.500Z,12.69
2022-11-24T12:53:02.450Z,12.69
2022-11-24T12:54:02.414Z,12.73
2022-11-24T12:55:02.366Z,12.73
2022-11-24T12:56:02.340Z,12.73
2022-11-24T12:57:02.292Z,12.73
2022-11-24T12:58:06.271Z,12.58
2022-11-24T12:59:02.214Z,12.56
2022-11-24T13:00:02.173Z,12.54
2022-11-24T13:01:02.134Z,12.59
2022-11-24T13:02:02.179Z,12.46
2022-11-24T13:03:02.280Z,12.58
2022-11-24T13:04:02.025Z,12.55
2022-11-24T13:05:01.977Z,12.56
2022-11-24T13:06:01.932Z,12.54
2022-11-24T13:07:01.889Z,12.58
2022-11-24T13:08:01.861Z,12.41
2022-11-24T13:09:01.821Z,12.43
2022-11-24T13:10:01.796Z,12.48
2022-11-24T13:11:01.732Z,12.43
2022-11-24T13:12:03.691Z,12.37
2022-11-24T13:13:01.650Z,12.34
2022-11-24T13:14:01.608Z,12.25
2022-11-24T13:15:01.570Z,12.22
2022-11-24T13:18:11.878Z,12.25
2022-11-24T13:19:01.475Z,12.22
2022-11-24T13:20:01.371Z,12.30
2022-11-24T13:21:02.165Z,12.22
2022-11-24T13:22:01.303Z,12.30
2022-11-24T13:23:01.264Z,12.25
2022-11-24T13:24:01.212Z,12.36
2022-11-24T13:25:01.177Z,12.26
2022-11-24T13:26:01.123Z,12.29
2022-11-24T13:27:01.107Z,12.26
2022-11-24T13:28:01.050Z,12.34
2022-11-24T13:29:06.107Z,12.38
2022-11-24T13:30:00.969Z,12.49
2022-11-24T13:31:00.948Z,12.49
2022-11-24T13:32:00.886Z,12.59
2022-11-24T13:33:00.861Z,12.61
2022-11-24T13:34:00.805Z,12.58
2022-11-24T13:35:00.766Z,12.67
2022-11-24T13:36:00.731Z,12.62
2022-11-24T13:37:31.918Z,12.70
2022-11-24T13:38:00.656Z,12.73
2022-11-24T13:39:00.609Z,12.54
2022-11-24T13:40:00.564Z,12.69
2022-11-24T13:41:21.353Z,12.63
2022-11-24T13:42:00.488Z,12.56
2022-11-24T13:43:00.454Z,12.63
2022-11-24T13:44:00.426Z,12.63
2022-11-24T13:45:00.368Z,12.69
2022-11-24T13:46:00.325Z,12.59
2022-11-24T13:47:05.717Z,12.62
2022-11-24T13:48:00.249Z,12.63
2022-11-24T13:49:00.207Z,12.61
2022-11-24T13:50:00.179Z,12.59
2022-11-24T13:51:00.129Z,12.54
2022-11-24T13:52:00.103Z,12.54
2022-11-24T13:53:00.072Z,12.55
2022-11-24T13:54:00.013Z,12.58